sensor_id;sensor_type;location;lat;lon;timestamp;pressure;altitude;pressure_sealevel;temperature;humidity
39449;BME280;25151;45.566;9.382;2024-01-25T00:42:42;100498.47;;;19.81;52.26
39449;BME280;25151;45.566;9.382;2024-01-25T00:45:10;100497.69;;;19.81;51.93
39449;BME280;25151;45.566;9.382;2024-01-25T00:47:38;100500.47;;;19.81;51.97
39449;BME280;25151;45.566;9.382;2024-01-25T00:50:07;100505.69;;;19.79;52.25
39449;BME280;25151;45.566;9.382;2024-01-25T00:52:34;100504.13;;;19.78;52.21
39449;BME280;25151;45.566;9.382;2024-01-25T00:55:02;100511.28;;;19.79;52.00
39449;BME280;25151;45.566;9.382;2024-01-25T00:57:30;100513.75;;;19.77;51.95
39449;BME280;25151;45.566;9.382;2024-01-25T00:59:58;100523.34;;;19.76;52.02
39449;BME280;25151;45.566;9.382;2024-01-25T01:02:30;100516.94;;;19.75;52.22
39449;BME280;25151;45.566;9.382;2024-01-25T01:05:02;100521.75;;;19.75;52.23
39449;BME280;25151;45.566;9.382;2024-01-25T01:07:30;100523.00;;;19.74;52.15
39449;BME280;25151;45.566;9.382;2024-01-25T01:09:59;100506.63;;;19.72;52.14
39449;BME280;25151;45.566;9.382;2024-01-25T01:12:26;100522.59;;;19.72;52.32
39449;BME280;25151;45.566;9.382;2024-01-25T01:14:53;100526.63;;;19.71;52.06
39449;BME280;25151;45.566;9.382;2024-01-25T01:17:20;100523.03;;;19.70;52.23
39449;BME280;25151;45.566;9.382;2024-01-25T01:19:47;100519.47;;;19.70;52.00
39449;BME280;25151;45.566;9.382;2024-01-25T01:38:35;100538.75;;;19.64;52.05
39449;BME280;25151;45.566;9.382;2024-01-25T01:41:02;100543.53;;;19.63;52.28
39449;BME280;25151;45.566;9.382;2024-01-25T01:43:29;100527.59;;;19.60;52.29
39449;BME280;25151;45.566;9.382;2024-01-25T01:46:04;100537.59;;;19.61;51.88
39449;BME280;25151;45.566;9.382;2024-01-25T01:48:35;100534.38;;;19.59;52.23
39449;BME280;25151;45.566;9.382;2024-01-25T01:51:01;100541.19;;;19.58;52.00
39449;BME280;25151;45.566;9.382;2024-01-25T01:53:29;100538.41;;;19.58;52.31
39449;BME280;25151;45.566;9.382;2024-01-25T01:55:56;100538.06;;;19.56;52.01
39449;BME280;25151;45.566;9.382;2024-01-25T01:58:24;100552.03;;;19.56;52.07
39449;BME280;25151;45.566;9.382;2024-01-25T02:01:03;100553.63;;;19.57;52.03
39449;BME280;25151;45.566;9.382;2024-01-25T02:03:31;100542.84;;;19.56;52.09
39449;BME280;25151;45.566;9.382;2024-01-25T02:05:59;100542.03;;;19.55;52.33
39449;BME280;25151;45.566;9.382;2024-01-25T02:08:31;100542.47;;;19.54;52.22
39449;BME280;25151;45.566;9.382;2024-01-25T02:11:00;100546.06;;;19.54;52.06
39449;BME280;25151;45.566;9.382;2024-01-25T02:13:27;100552.09;;;19.53;52.22
39449;BME280;25151;45.566;9.382;2024-01-25T02:15:58;100549.28;;;19.53;52.06
39449;BME280;25151;45.566;9.382;2024-01-25T02:18:26;100539.75;;;19.50;52.22
39449;BME280;25151;45.566;9.382;2024-01-25T02:20:53;100545.34;;;19.50;52.06
39449;BME280;25151;45.566;9.382;2024-01-25T02:23:20;100536.94;;;19.50;52.18
39449;BME280;25151;45.566;9.382;2024-01-25T02:25:48;100537.38;;;19.49;52.20
39449;BME280;25151;45.566;9.382;2024-01-25T02:28:15;100536.59;;;19.48;52.13
39449;BME280;25151;45.566;9.382;2024-01-25T02:30:42;100533.78;;;19.48;52.13
39449;BME280;25151;45.566;9.382;2024-01-25T02:33:09;100543.38;;;19.47;52.19
39449;BME280;25151;45.566;9.382;2024-01-25T02:35:37;100527.81;;;19.46;52.07
39449;BME280;25151;45.566;9.382;2024-01-25T02:38:05;100527.81;;;19.46;52.07
39449;BME280;25151;45.566;9.382;2024-01-25T02:40:32;100531.84;;;19.45;52.13
39449;BME280;25151;45.566;9.382;2024-01-25T02:43:09;100527.47;;;19.44;52.11
39449;BME280;25151;45.566;9.382;2024-01-25T02:45:36;100534.63;;;19.45;52.09
39449;BME280;25151;45.566;9.382;2024-01-25T02:48:04;100527.47;;;19.44;52.23
39449;BME280;25151;45.566;9.382;2024-01-25T02:50:31;100523.06;;;19.43;51.96
39449;BME280;25151;45.566;9.382;2024-01-25T02:53:02;100521.50;;;19.42;52.08
39449;BME280;25151;45.566;9.382;2024-01-25T02:55:29;100525.50;;;19.41;52.15
39449;BME280;25151;45.566;9.382;2024-01-25T02:57:56;100521.09;;;19.40;52.19
39449;BME280;25151;45.566;9.382;2024-01-25T03:00:23;100512.72;;;19.40;52.14
39449;BME280;25151;45.566;9.382;2024-01-25T03:02:50;100519.13;;;19.40;52.04
39449;BME280;25151;45.566;9.382;2024-01-25T03:05:17;100505.56;;;19.39;52.21
39449;BME280;25151;45.566;9.382;2024-01-25T03:07:44;100498.38;;;19.38;52.34
39449;BME280;25151;45.566;9.382;2024-01-25T03:10:12;100508.00;;;19.37;52.20
39449;BME280;25151;45.566;9.382;2024-01-25T03:12:39;100502.41;;;19.37;52.31
39449;BME280;25151;45.566;9.382;2024-01-25T03:15:07;100498.38;;;19.38;52.20
39449;BME280;25151;45.566;9.382;2024-01-25T03:17:34;100489.63;;;19.36;52.31
39449;BME280;25151;45.566;9.382;2024-01-25T03:20:06;100477.63;;;19.35;52.21
39449;BME280;25151;45.566;9.382;2024-01-25T03:22:34;100481.66;;;19.34;52.07
39449;BME280;25151;45.566;9.382;2024-01-25T03:25:01;100502.03;;;19.35;52.16
39449;BME280;25151;45.566;9.382;2024-01-25T03:44:16;100499.72;;;19.30;52.16
39449;BME280;25151;45.566;9.382;2024-01-25T03:46:43;100495.34;;;19.29;52.16
39449;BME280;25151;45.566;9.382;2024-01-25T03:49:16;100478.56;;;19.29;52.09
39449;BME280;25151;45.566;9.382;2024-01-25T03:51:43;100483.38;;;19.28;52.02
39449;BME280;25151;45.566;9.382;2024-01-25T03:54:10;100484.16;;;19.29;52.21
39449;BME280;25151;45.566;9.382;2024-01-25T03:56:43;100488.59;;;19.26;52.16
39449;BME280;25151;45.566;9.382;2024-01-25T03:59:10;100492.16;;;19.27;52.15
39449;BME280;25151;45.566;9.382;2024-01-25T04:01:43;100519.34;;;19.26;52.15
39449;BME280;25151;45.566;9.382;2024-01-25T04:04:10;100494.97;;;19.27;52.13
39449;BME280;25151;45.566;9.382;2024-01-25T04:06:42;100494.97;;;19.27;52.30
39449;BME280;25151;45.566;9.382;2024-01-25T04:09:09;100493.81;;;19.24;52.12
39449;BME280;25151;45.566;9.382;2024-01-25T04:11:37;100494.63;;;19.25;52.37
39449;BME280;25151;45.566;9.382;2024-01-25T04:14:04;100489.03;;;19.25;52.26
39449;BME280;25151;45.566;9.382;2024-01-25T04:16:33;100486.63;;;19.23;52.26
39449;BME280;25151;45.566;9.382;2024-01-25T04:19:00;100491.88;;;19.21;52.20
39449;BME280;25151;45.566;9.382;2024-01-25T04:21:27;100482.69;;;19.21;52.32
39449;BME280;25151;45.566;9.382;2024-01-25T04:23:55;100491.44;;;19.23;52.35
39449;BME280;25151;45.566;9.382;2024-01-25T04:26:27;100483.50;;;19.21;52.25
39449;BME280;25151;45.566;9.382;2024-01-25T04:28:55;100494.66;;;19.21;52.25
39449;BME280;25151;45.566;9.382;2024-01-25T04:31:22;100481.09;;;19.20;52.34
39449;BME280;25151;45.566;9.382;2024-01-25T04:33:49;100481.09;;;19.20;51.97
39449;BME280;25151;45.566;9.382;2024-01-25T04:36:16;100487.91;;;19.19;52.40
39449;BME280;25151;45.566;9.382;2024-01-25T04:38:43;100488.34;;;19.17;51.93
39449;BME280;25151;45.566;9.382;2024-01-25T04:41:10;100485.91;;;19.19;52.34
39449;BME280;25151;45.566;9.382;2024-01-25T04:43:38;100487.56;;;19.16;52.37
39449;BME280;25151;45.566;9.382;2024-01-25T04:46:05;100481.97;;;19.16;52.23
39449;BME280;25151;45.566;9.382;2024-01-25T04:48:33;100485.16;;;19.15;52.19
39449;BME280;25151;45.566;9.382;2024-01-25T04:51:01;100489.97;;;19.14;52.37
39449;BME280;25151;45.566;9.382;2024-01-25T04:53:28;100485.94;;;19.15;52.21
39449;BME280;25151;45.566;9.382;2024-01-25T04:55:57;100483.16;;;19.15;52.19
39449;BME280;25151;45.566;9.382;2024-01-25T04:58:25;100491.53;;;19.15;52.43
39449;BME280;25151;45.566;9.382;2024-01-25T05:00:57;100493.56;;;19.15;52.37
39449;BME280;25151;45.566;9.382;2024-01-25T05:03:26;100505.16;;;19.13;52.29
39449;BME280;25151;45.566;9.382;2024-01-25T05:05:53;100488.81;;;19.12;52.36
39449;BME280;25151;45.566;9.382;2024-01-25T05:08:23;100495.22;;;19.12;52.31
39449;BME280;25151;45.566;9.382;2024-01-25T05:10:50;100500.81;;;19.12;52.35
39449;BME280;25151;45.566;9.382;2024-01-25T05:13:18;100494.81;;;19.10;52.25
39449;BME280;25151;45.566;9.382;2024-01-25T05:15:45;100488.44;;;19.10;52.14
39449;BME280;25151;45.566;9.382;2024-01-25T05:18:13;100501.22;;;19.11;52.29
39449;BME280;25151;45.566;9.382;2024-01-25T05:20:40;100497.63;;;19.10;52.28
39449;BME280;25151;45.566;9.382;2024-01-25T05:23:07;100506.00;;;19.10;52.30
39449;BME280;25151;45.566;9.382;2024-01-25T05:25:34;100494.03;;;19.10;52.32
39449;BME280;25151;45.566;9.382;2024-01-25T05:28:02;100502.81;;;19.08;52.30
39449;BME280;25151;45.566;9.382;2024-01-25T05:30:29;100495.66;;;19.07;52.31
39449;BME280;25151;45.566;9.382;2024-01-25T05:32:56;100506.44;;;19.09;52.28
39449;BME280;25151;45.566;9.382;2024-01-25T05:35:24;100514.44;;;19.07;52.35
39449;BME280;25151;45.566;9.382;2024-01-25T05:37:51;100504.06;;;19.07;52.36
39449;BME280;25151;45.566;9.382;2024-01-25T05:40:18;100506.84;;;19.07;52.15
39449;BME280;25151;45.566;9.382;2024-01-25T05:42:46;100520.47;;;19.05;52.19
39449;BME280;25151;45.566;9.382;2024-01-25T05:45:12;100521.25;;;19.06;52.33
39449;BME280;25151;45.566;9.382;2024-01-25T05:47:40;100520.47;;;19.05;52.22
39449;BME280;25151;45.566;9.382;2024-01-25T05:50:07;100528.06;;;19.05;52.39
39449;BME280;25151;45.566;9.382;2024-01-25T05:52:34;100526.06;;;19.05;52.37
39449;BME280;25151;45.566;9.382;2024-01-25T05:55:04;100532.44;;;19.06;52.19
39449;BME280;25151;45.566;9.382;2024-01-25T05:57:31;100530.03;;;19.04;52.22
39449;BME280;25151;45.566;9.382;2024-01-25T05:59:59;100534.84;;;19.04;52.16
39449;BME280;25151;45.566;9.382;2024-01-25T06:02:27;100536.06;;;19.03;52.23
39449;BME280;25151;45.566;9.382;2024-01-25T06:04:54;100532.47;;;19.02;52.21
39449;BME280;25151;45.566;9.382;2024-01-25T06:07:24;100538.06;;;19.02;52.11
39449;BME280;25151;45.566;9.382;2024-01-25T06:09:57;100542.09;;;19.01;52.34
39449;BME280;25151;45.566;9.382;2024-01-25T06:12:24;100543.66;;;19.02;52.20
39449;BME280;25151;45.566;9.382;2024-01-25T06:14:51;100551.66;;;19.00;52.29
39449;BME280;25151;45.566;9.382;2024-01-25T06:17:18;100551.66;;;19.00;52.17
39449;BME280;25151;45.566;9.382;2024-01-25T06:19:45;100549.69;;;19.01;52.42
39449;BME280;25151;45.566;9.382;2024-01-25T06:22:13;100564.06;;;18.99;52.28
39449;BME280;25151;45.566;9.382;2024-01-25T06:24:43;100555.69;;;18.99;52.22
39449;BME280;25151;45.566;9.382;2024-01-25T06:27:13;100562.84;;;19.00;52.33
39449;BME280;25151;45.566;9.382;2024-01-25T06:29:43;100562.50;;;18.98;52.28
39449;BME280;25151;45.566;9.382;2024-01-25T06:32:15;100552.53;;;18.97;52.36
39449;BME280;25151;45.566;9.382;2024-01-25T06:34:43;100562.09;;;18.96;52.23
39449;BME280;25151;45.566;9.382;2024-01-25T06:37:10;100553.31;;;18.98;52.24
39449;BME280;25151;45.566;9.382;2024-01-25T06:39:41;100569.28;;;18.97;52.32
39449;BME280;25151;45.566;9.382;2024-01-25T06:42:10;100579.69;;;18.97;52.34
39449;BME280;25151;45.566;9.382;2024-01-25T06:44:37;100569.28;;;18.97;52.31
39449;BME280;25151;45.566;9.382;2024-01-25T06:47:04;100572.50;;;18.96;52.21
39449;BME280;25151;45.566;9.382;2024-01-25T06:49:32;100572.50;;;18.96;52.39
39449;BME280;25151;45.566;9.382;2024-01-25T06:52:10;100577.28;;;18.95;52.17
39449;BME280;25151;45.566;9.382;2024-01-25T06:54:42;100576.50;;;18.95;52.33
39449;BME280;25151;45.566;9.382;2024-01-25T06:57:09;100576.50;;;18.95;52.47
39449;BME280;25151;45.566;9.382;2024-01-25T06:59:35;100580.53;;;18.94;52.25
39449;BME280;25151;45.566;9.382;2024-01-25T07:02:02;100565.34;;;18.95;52.33
39449;BME280;25151;45.566;9.382;2024-01-25T07:04:29;100582.88;;;18.95;52.24
39449;BME280;25151;45.566;9.382;2024-01-25T07:06:58;100578.88;;;18.96;52.37
39449;BME280;25151;45.566;9.382;2024-01-25T07:09:25;100596.81;;;18.99;52.48
39449;BME280;25151;45.566;9.382;2024-01-25T07:11:53;100575.63;;;19.01;52.25
39449;BME280;25151;45.566;9.382;2024-01-25T07:14:20;100595.56;;;19.03;52.14
39449;BME280;25151;45.566;9.382;2024-01-25T07:16:53;100566.75;;;19.06;52.37
39449;BME280;25151;45.566;9.382;2024-01-25T07:19:20;100582.69;;;19.09;52.31
39449;BME280;25151;45.566;9.382;2024-01-25T07:21:48;100576.28;;;19.12;52.14
39449;BME280;25151;45.566;9.382;2024-01-25T07:24:16;100587.38;;;19.16;52.44
39449;BME280;25151;45.566;9.382;2024-01-25T07:26:44;100566.19;;;19.19;52.32
39449;BME280;25151;45.566;9.382;2024-01-25T07:29:12;100565.34;;;19.22;52.41
39449;BME280;25151;45.566;9.382;2024-01-25T07:31:40;100561.72;;;19.25;52.21
39449;BME280;25151;45.566;9.382;2024-01-25T07:34:10;100583.59;;;19.30;52.28
39449;BME280;25151;45.566;9.382;2024-01-25T07:36:44;100575.94;;;19.34;52.04
39449;BME280;25151;45.566;9.382;2024-01-25T07:39:11;100588.66;;;19.38;52.20
39449;BME280;25151;45.566;9.382;2024-01-25T07:41:40;100575.41;;;19.42;52.24
39449;BME280;25151;45.566;9.382;2024-01-25T07:44:08;100581.34;;;19.48;52.02
39449;BME280;25151;45.566;9.382;2024-01-25T07:46:35;100573.69;;;19.52;52.20
39449;BME280;25151;45.566;9.382;2024-01-25T07:49:02;100572.41;;;19.57;52.04
39449;BME280;25151;45.566;9.382;2024-01-25T07:51:29;100589.13;;;19.64;51.89
39449;BME280;25151;45.566;9.382;2024-01-25T07:53:57;100580.22;;;19.69;52.12
39449;BME280;25151;45.566;9.382;2024-01-25T07:56:25;100574.56;;;19.73;52.11
39449;BME280;25151;45.566;9.382;2024-01-25T07:58:52;100586.84;;;19.79;51.44
39449;BME280;25151;45.566;9.382;2024-01-25T08:01:20;100581.56;;;19.84;51.81
39449;BME280;25151;45.566;9.382;2024-01-25T08:03:46;100578.28;;;19.89;51.66
39449;BME280;25151;45.566;9.382;2024-01-25T08:06:15;100573.41;;;19.94;51.85
39449;BME280;25151;45.566;9.382;2024-01-25T08:08:42;100575.78;;;19.95;51.52
39449;BME280;25151;45.566;9.382;2024-01-25T08:11:09;100580.91;;;20.00;51.50
39449;BME280;25151;45.566;9.382;2024-01-25T08:13:42;100574.88;;;20.02;51.52
39449;BME280;25151;45.566;9.382;2024-01-25T08:16:13;100582.41;;;20.05;51.41
39449;BME280;25151;45.566;9.382;2024-01-25T08:18:40;100596.75;;;20.07;51.56
39449;BME280;25151;45.566;9.382;2024-01-25T08:21:07;100581.13;;;20.09;51.23
39449;BME280;25151;45.566;9.382;2024-01-25T08:23:36;100583.16;;;20.09;51.26
39449;BME280;25151;45.566;9.382;2024-01-25T08:26:03;100587.09;;;20.11;51.41
39449;BME280;25151;45.566;9.382;2024-01-25T08:28:36;100577.91;;;20.11;51.30
39449;BME280;25151;45.566;9.382;2024-01-25T08:31:03;100583.44;;;20.14;51.57
39449;BME280;25151;45.566;9.382;2024-01-25T08:33:35;100585.44;;;20.14;51.30
39449;BME280;25151;45.566;9.382;2024-01-25T08:36:05;100572.22;;;20.14;51.37
39449;BME280;25151;45.566;9.382;2024-01-25T08:38:31;100581.00;;;20.17;51.56
39449;BME280;25151;45.566;9.382;2024-01-25T08:40:59;100585.75;;;20.20;51.78
39449;BME280;25151;45.566;9.382;2024-01-25T08:43:25;100589.75;;;20.19;51.78
39449;BME280;25151;45.566;9.382;2024-01-25T08:45:56;100593.59;;;20.28;51.47
39449;BME280;25151;45.566;9.382;2024-01-25T08:48:23;100596.03;;;20.26;51.73
39449;BME280;25151;45.566;9.382;2024-01-25T08:50:50;100590.91;;;20.21;51.71
39449;BME280;25151;45.566;9.382;2024-01-25T08:53:22;100596.53;;;20.21;51.51
39449;BME280;25151;45.566;9.382;2024-01-25T08:55:55;100596.16;;;20.19;51.92
39449;BME280;25151;45.566;9.382;2024-01-25T08:58:22;100597.75;;;20.20;51.90
39449;BME280;25151;45.566;9.382;2024-01-25T09:00:49;100599.31;;;20.21;51.85
39449;BME280;25151;45.566;9.382;2024-01-25T09:03:21;100596.97;;;20.20;51.79
39449;BME280;25151;45.566;9.382;2024-01-25T09:05:48;100586.53;;;20.20;51.84
39449;BME280;25151;45.566;9.382;2024-01-25T09:08:15;100604.13;;;20.21;51.87
39449;BME280;25151;45.566;9.382;2024-01-25T09:10:42;100606.94;;;20.21;51.65
39449;BME280;25151;45.566;9.382;2024-01-25T09:13:10;100597.75;;;20.20;52.06
39449;BME280;25151;45.566;9.382;2024-01-25T09:15:37;100590.13;;;20.21;51.84
39449;BME280;25151;45.566;9.382;2024-01-25T09:18:06;100587.69;;;20.23;51.83
39449;BME280;25151;45.566;9.382;2024-01-25T09:20:33;100581.66;;;20.24;51.67
39449;BME280;25151;45.566;9.382;2024-01-25T09:23:01;100574.41;;;20.27;51.59
39449;BME280;25151;45.566;9.382;2024-01-25T09:25:27;100572.31;;;20.31;51.73
39449;BME280;25151;45.566;9.382;2024-01-25T09:27:55;100583.13;;;20.32;51.58
39449;BME280;25151;45.566;9.382;2024-01-25T09:30:23;100583.06;;;20.36;51.69
39449;BME280;25151;45.566;9.382;2024-01-25T09:32:49;100586.19;;;20.38;51.58
39449;BME280;25151;45.566;9.382;2024-01-25T09:35:17;100592.16;;;20.40;51.67
39449;BME280;25151;45.566;9.382;2024-01-25T09:37:44;100603.38;;;20.40;51.31
39449;BME280;25151;45.566;9.382;2024-01-25T09:40:11;100595.75;;;20.41;51.33
39449;BME280;25151;45.566;9.382;2024-01-25T09:42:39;100607.75;;;20.41;51.38
39449;BME280;25151;45.566;9.382;2024-01-25T09:45:07;100609.31;;;20.42;51.69
39449;BME280;25151;45.566;9.382;2024-01-25T09:47:37;100602.16;;;20.41;51.32
39449;BME280;25151;45.566;9.382;2024-01-25T09:50:04;100606.53;;;20.42;51.13
39449;BME280;25151;45.566;9.382;2024-01-25T09:52:32;100618.09;;;20.44;51.26
39449;BME280;25151;45.566;9.382;2024-01-25T09:55:01;100628.94;;;20.42;51.28
39449;BME280;25151;45.566;9.382;2024-01-25T09:57:28;100635.75;;;20.41;51.24
39449;BME280;25151;45.566;9.382;2024-01-25T09:59:57;100631.72;;;20.42;51.18
39449;BME280;25151;45.566;9.382;2024-01-25T10:02:26;100636.13;;;20.43;51.11
39449;BME280;25151;45.566;9.382;2024-01-25T10:04:53;100650.94;;;20.44;50.81
39449;BME280;25151;45.566;9.382;2024-01-25T10:07:39;100653.75;;;20.44;51.03
39449;BME280;25151;45.566;9.382;2024-01-25T10:10:06;100658.13;;;20.45;50.77
39449;BME280;25151;45.566;9.382;2024-01-25T10:12:34;100650.94;;;20.44;50.87
39449;BME280;25151;45.566;9.382;2024-01-25T10:15:01;100660.53;;;20.43;50.82
39449;BME280;25151;45.566;9.382;2024-01-25T10:17:31;100655.75;;;20.43;50.74
39449;BME280;25151;45.566;9.382;2024-01-25T10:19:58;100665.34;;;20.42;50.69
39449;BME280;25151;45.566;9.382;2024-01-25T10:22:27;100676.94;;;20.44;50.79
39449;BME280;25151;45.566;9.382;2024-01-25T10:25:00;100665.72;;;20.44;50.68
39449;BME280;25151;45.566;9.382;2024-01-25T10:27:31;100657.31;;;20.44;50.65
39449;BME280;25151;45.566;9.382;2024-01-25T10:29:59;100661.69;;;20.45;50.58
39449;BME280;25151;45.566;9.382;2024-01-25T10:32:27;100662.06;;;20.47;50.69
39449;BME280;25151;45.566;9.382;2024-01-25T10:34:56;100668.88;;;20.46;50.32
39449;BME280;25151;45.566;9.382;2024-01-25T10:37:25;100671.69;;;20.46;50.34
39449;BME280;25151;45.566;9.382;2024-01-25T10:39:59;100666.06;;;20.46;50.49
39449;BME280;25151;45.566;9.382;2024-01-25T10:42:26;100666.06;;;20.46;50.43
39449;BME280;25151;45.566;9.382;2024-01-25T10:44:53;100654.88;;;20.46;50.57
39449;BME280;25151;45.566;9.382;2024-01-25T10:47:29;100671.69;;;20.46;50.64
39449;BME280;25151;45.566;9.382;2024-01-25T10:50:12;100667.31;;;20.45;50.77
39449;BME280;25151;45.566;9.382;2024-01-25T10:52:50;100671.69;;;20.46;50.35
39449;BME280;25151;45.566;9.382;2024-01-25T10:55:17;100668.09;;;20.46;50.45
39449;BME280;25151;45.566;9.382;2024-01-25T10:57:45;100665.28;;;20.46;50.50
39449;BME280;25151;45.566;9.382;2024-01-25T11:00:14;100670.09;;;20.45;50.46
39449;BME280;25151;45.566;9.382;2024-01-25T11:02:51;100667.31;;;20.45;50.59
39449;BME280;25151;45.566;9.382;2024-01-25T11:05:19;100659.69;;;20.46;50.50
39449;BME280;25151;45.566;9.382;2024-01-25T11:07:53;100663.72;;;20.45;50.80
39449;BME280;25151;45.566;9.382;2024-01-25T11:10:25;100665.72;;;20.44;50.81
39449;BME280;25151;45.566;9.382;2024-01-25T11:12:56;100664.50;;;20.45;50.58
39449;BME280;25151;45.566;9.382;2024-01-25T11:15:32;100668.53;;;20.44;50.85
39449;BME280;25151;45.566;9.382;2024-01-25T11:17:59;100684.50;;;20.47;50.47
39449;BME280;25151;45.566;9.382;2024-01-25T11:20:28;100672.47;;;20.47;50.67
39449;BME280;25151;45.566;9.382;2024-01-25T11:23:15;100663.72;;;20.45;50.88
39449;BME280;25151;45.566;9.382;2024-01-25T11:25:45;100659.69;;;20.46;50.63
39449;BME280;25151;45.566;9.382;2024-01-25T11:28:15;100660.47;;;20.46;50.60
39449;BME280;25151;45.566;9.382;2024-01-25T11:30:45;100667.69;;;20.47;50.82
39449;BME280;25151;45.566;9.382;2024-01-25T11:33:13;100671.69;;;20.46;50.64
39449;BME280;25151;45.566;9.382;2024-01-25T11:35:41;100678.06;;;20.47;50.96
39449;BME280;25151;45.566;9.382;2024-01-25T11:38:09;100671.69;;;20.46;50.91
39449;BME280;25151;45.566;9.382;2024-01-25T11:40:36;100671.69;;;20.46;50.87
39449;BME280;25151;45.566;9.382;2024-01-25T11:43:05;100681.31;;;20.45;50.93
39449;BME280;25151;45.566;9.382;2024-01-25T11:45:36;100657.31;;;20.44;50.89
39449;BME280;25151;45.566;9.382;2024-01-25T11:48:08;100650.94;;;20.44;51.00
39449;BME280;25151;45.566;9.382;2024-01-25T11:50:35;100664.16;;;20.43;50.75
39449;BME280;25151;45.566;9.382;2024-01-25T11:53:02;100645.34;;;20.44;50.79
39449;BME280;25151;45.566;9.382;2024-01-25T11:55:29;100642.94;;;20.42;50.86
39449;BME280;25151;45.566;9.382;2024-01-25T11:57:56;100642.94;;;20.42;50.84
39449;BME280;25151;45.566;9.382;2024-01-25T12:00:34;100652.56;;;20.41;50.95
39449;BME280;25151;45.566;9.382;2024-01-25T12:03:01;100642.94;;;20.42;50.87
39449;BME280;25151;45.566;9.382;2024-01-25T12:05:28;100637.78;;;20.41;51.05
39449;BME280;25151;45.566;9.382;2024-01-25T12:07:55;100642.59;;;20.40;51.03
39449;BME280;25151;45.566;9.382;2024-01-25T12:10:22;100651.00;;;20.40;51.05
39449;BME280;25151;45.566;9.382;2024-01-25T12:12:56;100651.78;;;20.41;51.21
39449;BME280;25151;45.566;9.382;2024-01-25T12:15:23;100643.78;;;20.39;51.20
39449;BME280;25151;45.566;9.382;2024-01-25T12:17:49;100635.38;;;20.39;51.22
39449;BME280;25151;45.566;9.382;2024-01-25T12:20:16;100642.22;;;20.38;51.24
39449;BME280;25151;45.566;9.382;2024-01-25T12:22:44;100642.22;;;20.38;51.35
39449;BME280;25151;45.566;9.382;2024-01-25T12:25:14;100642.59;;;20.40;51.38
39449;BME280;25151;45.566;9.382;2024-01-25T12:27:41;100633.41;;;20.39;51.37
39449;BME280;25151;45.566;9.382;2024-01-25T12:30:08;100629.00;;;20.38;51.16
39449;BME280;25151;45.566;9.382;2024-01-25T12:32:34;100638.19;;;20.39;51.15
39449;BME280;25151;45.566;9.382;2024-01-25T12:35:01;100636.63;;;20.38;51.28
39449;BME280;25151;45.566;9.382;2024-01-25T12:37:29;100633.47;;;20.36;51.11
39449;BME280;25151;45.566;9.382;2024-01-25T12:39:56;100633.47;;;20.36;51.21
39449;BME280;25151;45.566;9.382;2024-01-25T12:42:22;100632.25;;;20.37;51.30
39449;BME280;25151;45.566;9.382;2024-01-25T12:44:53;100625.06;;;20.36;51.25
39449;BME280;25151;45.566;9.382;2024-01-25T12:47:25;100627.88;;;20.36;51.61
39449;BME280;25151;45.566;9.382;2024-01-25T12:49:52;100631.88;;;20.35;51.21
39449;BME280;25151;45.566;9.382;2024-01-25T12:52:29;100622.66;;;20.34;51.30
39449;BME280;25151;45.566;9.382;2024-01-25T12:54:55;100627.47;;;20.34;51.57
39449;BME280;25151;45.566;9.382;2024-01-25T12:57:22;100631.50;;;20.33;51.40
39449;BME280;25151;45.566;9.382;2024-01-25T12:59:49;100633.53;;;20.32;51.38
39449;BME280;25151;45.566;9.382;2024-01-25T13:02:16;100635.53;;;20.32;51.37
39449;BME280;25151;45.566;9.382;2024-01-25T13:04:43;100617.13;;;20.31;51.49
39449;BME280;25151;45.566;9.382;2024-01-25T13:07:10;100623.97;;;20.30;51.42
39449;BME280;25151;45.566;9.382;2024-01-25T13:09:41;100619.94;;;20.31;51.49
39449;BME280;25151;45.566;9.382;2024-01-25T13:12:09;100623.19;;;20.29;51.43
39449;BME280;25151;45.566;9.382;2024-01-25T13:14:37;100630.78;;;20.29;51.38
39449;BME280;25151;45.566;9.382;2024-01-25T13:17:04;100623.63;;;20.28;51.41
39449;BME280;25151;45.566;9.382;2024-01-25T13:19:34;100601.63;;;20.26;51.43
39449;BME280;25151;45.566;9.382;2024-01-25T13:22:01;100620.81;;;20.28;51.65
39449;BME280;25151;45.566;9.382;2024-01-25T13:24:28;100616.41;;;20.27;51.50
39449;BME280;25151;45.566;9.382;2024-01-25T13:26:54;100620.44;;;20.26;51.73
39449;BME280;25151;45.566;9.382;2024-01-25T13:29:25;100621.66;;;20.25;51.54
39449;BME280;25151;45.566;9.382;2024-01-25T13:31:51;100613.25;;;20.25;51.73
39449;BME280;25151;45.566;9.382;2024-01-25T13:34:18;100606.50;;;20.22;51.50
39449;BME280;25151;45.566;9.382;2024-01-25T13:36:45;100616.13;;;20.21;51.61
39449;BME280;25151;45.566;9.382;2024-01-25T13:39:12;100621.72;;;20.21;51.48
39449;BME280;25151;45.566;9.382;2024-01-25T13:41:39;100631.75;;;20.19;51.84
39449;BME280;25151;45.566;9.382;2024-01-25T13:44:06;100628.97;;;20.19;51.77
39449;BME280;25151;45.566;9.382;2024-01-25T13:46:32;100622.56;;;20.18;51.46
39449;BME280;25151;45.566;9.382;2024-01-25T13:48:59;100625.81;;;20.17;51.50
39449;BME280;25151;45.566;9.382;2024-01-25T13:51:26;100627.03;;;20.16;51.35
39449;BME280;25151;45.566;9.382;2024-01-25T13:53:52;100625.44;;;20.14;51.57
39449;BME280;25151;45.566;9.382;2024-01-25T13:56:24;100626.66;;;20.13;51.51
39449;BME280;25151;45.566;9.382;2024-01-25T13:58:51;100635.84;;;20.14;51.69
39449;BME280;25151;45.566;9.382;2024-01-25T14:01:20;100631.03;;;20.14;51.38
39449;BME280;25151;45.566;9.382;2024-01-25T14:03:58;100613.81;;;20.16;51.49
39449;BME280;25151;45.566;9.382;2024-01-25T14:06:25;100618.63;;;20.16;51.55
39449;BME280;25151;45.566;9.382;2024-01-25T14:08:52;100609.84;;;20.13;51.70
39449;BME280;25151;45.566;9.382;2024-01-25T14:11:24;100621.06;;;20.13;51.47